Terminal Aerodrome Forecast
Issued by NWS Duluth, MN

Home | Current Version | Previous Version | Text Only | Print | Product List | Glossary On
Versions: 1 2 3 4 5 6 7 8 9 10 11 12 13 14 15 16 17 18 19 20 21 22 23 24 25 26 27 28 29
000
FTUS43 KDLH 251016 AAA
TAFINL
TAF AMD
KINL 251016Z 2510/2606 29005KT 3SM BR BKN005
     FM251400 35006KT P6SM BKN008 OVC015
     FM251800 35008KT P6SM OVC015
     FM260400 03005KT 6SM -RA OVC007=

USA.gov is the U.S. government's official web portal to all federal, state and local government web resources and services.